Aviation Digital Data Service (ADDS)

Output produced by TAFs form (1841 UTC 19 February 2017)
found at http://aviationweather.gov/adds/tafs/
 
KABQ 191749Z 1918/2018 19010KT P6SM VCSH SCT035 BKN060 
     FM191930 25015KT P6SM VCSH SCT040 BKN080 
     TEMPO 1920/1924 -SHRA BKN035 
     FM200100 25007KT P6SM FEW035 BKN080 
     FM201000 32007KT P6SM FEW025 SCT040